Dati Storici

Data ora Umidita' aria (%) Temperatura aria (°C) Rad globale (W/m²) Gonioanemometro (°) Tacoanemometro (m/s) Pioggia (mm)
06-06-2020 00:50 97.7 % 18.876 -75.439 1.339 0 0
06-06-2020 00:40 97.7 % 18.956 -75.892 3.711 0 0
06-06-2020 00:30 97.7 % 18.964 -77.532 1.461 0 0
06-06-2020 00:20 97.7 % 18.997 -77.512 1.089 0 0
06-06-2020 00:10 97.7 % 19.018 -75.015 1.221 0 0
06-06-2020 00:00 97.7 % 18.957 -72.893 2.935 0 0
05-06-2020 23:50 97.7 % 18.954 -73.416 0.903 0 0
05-06-2020 23:40 97.7 % 18.955 -76.788 2.51 0 0
05-06-2020 23:30 97.7 % 19.048 -77.214 1.989 0 0
05-06-2020 23:20 97.7 % 19.081 -75.605 1.877 0 0
05-06-2020 23:10 97.7 % 19.11 -76.856 1.445 0 0
05-06-2020 23:00 97.7 % 19.143 -75.703 2.151 0 0
05-06-2020 22:50 97.6 % 19.281 -79.276 1.255 0 0
05-06-2020 22:40 95.2 % 19.423 -82.677 0.931 0 0
05-06-2020 22:30 84.6 % 19.734 -77.358 1.863 0 0
05-06-2020 22:20 82.6 % 19.768 -69.893 0.328 0 0
05-06-2020 22:10 79.9 % 19.932 -81.16 2.514 0 0
05-06-2020 22:00 79.6 % 20.015 -77.938 3.119 0 0
05-06-2020 21:50 78.7 % 20.06 -75.96 1.13 0 0
05-06-2020 21:40 77.8 % 20.231 -73.882 3.581 0 0

I dati sono presentati in modo automatico a scopo informativo. In seguito a verifica i dati possono subire modifiche o essere invalidati e non riportati negli archivi definitivi.